sensor_id;sensor_type;location;lat;lon;timestamp;temperature;humidity
16511;DHT22;8368;48.772;8.754;2023-02-25T00:02:24;3.40;99.90
16511;DHT22;8368;48.772;8.754;2023-02-25T00:04:49;3.40;99.90
16511;DHT22;8368;48.772;8.754;2023-02-25T00:07:15;3.30;99.90
16511;DHT22;8368;48.772;8.754;2023-02-25T00:09:41;3.40;99.90
16511;DHT22;8368;48.772;8.754;2023-02-25T00:12:06;3.40;99.90
16511;DHT22;8368;48.772;8.754;2023-02-25T00:14:32;3.40;99.90
16511;DHT22;8368;48.772;8.754;2023-02-25T00:16:57;3.40;99.90
16511;DHT22;8368;48.772;8.754;2023-02-25T00:19:24;3.40;99.90
16511;DHT22;8368;48.772;8.754;2023-02-25T00:21:50;3.30;99.90
16511;DHT22;8368;48.772;8.754;2023-02-25T00:24:15;3.30;99.90
16511;DHT22;8368;48.772;8.754;2023-02-25T00:26:41;3.30;99.90
16511;DHT22;8368;48.772;8.754;2023-02-25T00:29:06;3.30;99.90
16511;DHT22;8368;48.772;8.754;2023-02-25T00:31:32;3.30;99.90
16511;DHT22;8368;48.772;8.754;2023-02-25T00:33:58;3.30;99.90
16511;DHT22;8368;48.772;8.754;2023-02-25T00:36:25;3.30;99.90
16511;DHT22;8368;48.772;8.754;2023-02-25T00:38:56;3.30;99.90
16511;DHT22;8368;48.772;8.754;2023-02-25T00:41:24;3.30;99.90
16511;DHT22;8368;48.772;8.754;2023-02-25T00:43:53;3.20;99.90
16511;DHT22;8368;48.772;8.754;2023-02-25T00:46:19;3.20;99.90
16511;DHT22;8368;48.772;8.754;2023-02-25T00:48:45;3.20;99.90
16511;DHT22;8368;48.772;8.754;2023-02-25T00:51:13;3.20;99.90
16511;DHT22;8368;48.772;8.754;2023-02-25T00:53:39;3.20;99.90
16511;DHT22;8368;48.772;8.754;2023-02-25T00:56:07;3.20;99.90
16511;DHT22;8368;48.772;8.754;2023-02-25T00:58:37;3.20;99.90
16511;DHT22;8368;48.772;8.754;2023-02-25T01:01:04;3.20;99.90
16511;DHT22;8368;48.772;8.754;2023-02-25T01:03:31;3.10;99.90
16511;DHT22;8368;48.772;8.754;2023-02-25T01:05:56;3.20;99.90
16511;DHT22;8368;48.772;8.754;2023-02-25T01:08:22;3.20;99.90
16511;DHT22;8368;48.772;8.754;2023-02-25T01:10:48;3.20;99.90
16511;DHT22;8368;48.772;8.754;2023-02-25T01:13:14;3.20;99.90
16511;DHT22;8368;48.772;8.754;2023-02-25T01:15:40;3.20;99.90
16511;DHT22;8368;48.772;8.754;2023-02-25T01:18:06;3.20;99.90
16511;DHT22;8368;48.772;8.754;2023-02-25T01:20:35;3.20;99.90
16511;DHT22;8368;48.772;8.754;2023-02-25T01:23:01;3.20;99.90
16511;DHT22;8368;48.772;8.754;2023-02-25T01:25:27;3.20;99.90
16511;DHT22;8368;48.772;8.754;2023-02-25T01:27:54;3.20;99.90
16511;DHT22;8368;48.772;8.754;2023-02-25T01:30:20;3.20;99.90
16511;DHT22;8368;48.772;8.754;2023-02-25T01:32:45;3.20;99.90
16511;DHT22;8368;48.772;8.754;2023-02-25T01:35:11;3.10;99.90
16511;DHT22;8368;48.772;8.754;2023-02-25T01:37:37;3.10;99.90
16511;DHT22;8368;48.772;8.754;2023-02-25T01:40:03;3.10;99.90
16511;DHT22;8368;48.772;8.754;2023-02-25T01:42:29;3.10;99.90
16511;DHT22;8368;48.772;8.754;2023-02-25T01:47:51;3.00;99.90
16511;DHT22;8368;48.772;8.754;2023-02-25T01:50:19;3.00;99.90
16511;DHT22;8368;48.772;8.754;2023-02-25T01:52:46;3.00;99.90
16511;DHT22;8368;48.772;8.754;2023-02-25T01:55:11;3.00;99.90
16511;DHT22;8368;48.772;8.754;2023-02-25T01:57:37;3.00;99.90
16511;DHT22;8368;48.772;8.754;2023-02-25T02:00:06;3.00;99.90
16511;DHT22;8368;48.772;8.754;2023-02-25T02:02:42;2.90;99.90
16511;DHT22;8368;48.772;8.754;2023-02-25T02:05:09;3.00;99.90
16511;DHT22;8368;48.772;8.754;2023-02-25T02:07:35;3.00;99.90
16511;DHT22;8368;48.772;8.754;2023-02-25T02:10:01;3.00;99.90
16511;DHT22;8368;48.772;8.754;2023-02-25T02:12:35;3.00;99.90
16511;DHT22;8368;48.772;8.754;2023-02-25T02:15:05;2.90;99.90
16511;DHT22;8368;48.772;8.754;2023-02-25T02:20:28;3.00;99.90
16511;DHT22;8368;48.772;8.754;2023-02-25T02:40:42;3.00;99.90
16511;DHT22;8368;48.772;8.754;2023-02-25T02:46:22;3.00;99.90
16511;DHT22;8368;48.772;8.754;2023-02-25T02:48:54;3.00;99.90
16511;DHT22;8368;48.772;8.754;2023-02-25T02:51:25;3.00;99.90
16511;DHT22;8368;48.772;8.754;2023-02-25T02:53:57;3.00;99.90
16511;DHT22;8368;48.772;8.754;2023-02-25T02:56:25;3.00;99.90
16511;DHT22;8368;48.772;8.754;2023-02-25T02:59:00;3.00;99.90
16511;DHT22;8368;48.772;8.754;2023-02-25T03:01:36;3.00;99.90
16511;DHT22;8368;48.772;8.754;2023-02-25T03:04:05;3.00;99.90
16511;DHT22;8368;48.772;8.754;2023-02-25T03:06:39;3.00;99.90
16511;DHT22;8368;48.772;8.754;2023-02-25T03:09:15;2.90;99.90
16511;DHT22;8368;48.772;8.754;2023-02-25T03:11:43;2.90;99.90
16511;DHT22;8368;48.772;8.754;2023-02-25T03:14:10;2.90;99.90
16511;DHT22;8368;48.772;8.754;2023-02-25T03:16:43;2.90;99.90
16511;DHT22;8368;48.772;8.754;2023-02-25T03:19:14;2.80;99.90
16511;DHT22;8368;48.772;8.754;2023-02-25T03:21:51;2.80;99.90
16511;DHT22;8368;48.772;8.754;2023-02-25T03:24:22;2.80;99.90
16511;DHT22;8368;48.772;8.754;2023-02-25T03:26:50;2.80;99.90
16511;DHT22;8368;48.772;8.754;2023-02-25T03:29:19;2.80;99.90
16511;DHT22;8368;48.772;8.754;2023-02-25T03:31:56;2.80;99.90
16511;DHT22;8368;48.772;8.754;2023-02-25T03:34:47;2.80;99.90
16511;DHT22;8368;48.772;8.754;2023-02-25T03:37:20;2.80;99.90
16511;DHT22;8368;48.772;8.754;2023-02-25T03:39:49;2.80;99.90
16511;DHT22;8368;48.772;8.754;2023-02-25T03:42:20;2.70;99.90
16511;DHT22;8368;48.772;8.754;2023-02-25T03:44:50;2.70;99.90
16511;DHT22;8368;48.772;8.754;2023-02-25T03:47:17;2.70;99.90
16511;DHT22;8368;48.772;8.754;2023-02-25T03:52:41;2.70;99.90
16511;DHT22;8368;48.772;8.754;2023-02-25T03:55:07;2.70;99.90
16511;DHT22;8368;48.772;8.754;2023-02-25T03:57:40;2.70;99.90
16511;DHT22;8368;48.772;8.754;2023-02-25T04:00:20;2.70;99.90
16511;DHT22;8368;48.772;8.754;2023-02-25T04:02:47;2.60;99.90
16511;DHT22;8368;48.772;8.754;2023-02-25T04:05:16;2.60;99.90
16511;DHT22;8368;48.772;8.754;2023-02-25T04:07:42;2.60;99.90
16511;DHT22;8368;48.772;8.754;2023-02-25T04:10:09;2.60;99.90
16511;DHT22;8368;48.772;8.754;2023-02-25T04:12:35;2.60;99.90
16511;DHT22;8368;48.772;8.754;2023-02-25T04:15:01;2.60;99.90
16511;DHT22;8368;48.772;8.754;2023-02-25T04:17:27;2.50;99.90
16511;DHT22;8368;48.772;8.754;2023-02-25T04:19:52;2.50;99.90
16511;DHT22;8368;48.772;8.754;2023-02-25T04:22:18;2.50;99.90
16511;DHT22;8368;48.772;8.754;2023-02-25T04:24:44;2.60;99.90
16511;DHT22;8368;48.772;8.754;2023-02-25T04:27:09;2.60;99.90
16511;DHT22;8368;48.772;8.754;2023-02-25T04:29:35;2.60;99.90
16511;DHT22;8368;48.772;8.754;2023-02-25T04:32:01;2.50;99.90
16511;DHT22;8368;48.772;8.754;2023-02-25T04:34:26;2.50;99.90
16511;DHT22;8368;48.772;8.754;2023-02-25T04:36:52;2.50;99.90
16511;DHT22;8368;48.772;8.754;2023-02-25T04:39:17;2.40;99.90
16511;DHT22;8368;48.772;8.754;2023-02-25T04:41:44;2.40;99.90
16511;DHT22;8368;48.772;8.754;2023-02-25T04:44:10;2.30;99.90
16511;DHT22;8368;48.772;8.754;2023-02-25T04:46:38;2.30;99.90
16511;DHT22;8368;48.772;8.754;2023-02-25T04:49:04;2.20;99.90
16511;DHT22;8368;48.772;8.754;2023-02-25T04:51:31;2.10;99.90
16511;DHT22;8368;48.772;8.754;2023-02-25T04:53:57;2.00;99.90
16511;DHT22;8368;48.772;8.754;2023-02-25T04:56:23;2.00;99.90
16511;DHT22;8368;48.772;8.754;2023-02-25T04:58:48;2.00;99.90
16511;DHT22;8368;48.772;8.754;2023-02-25T05:01:14;1.90;99.90
16511;DHT22;8368;48.772;8.754;2023-02-25T05:03:40;1.90;99.90
16511;DHT22;8368;48.772;8.754;2023-02-25T05:06:07;2.00;99.90
16511;DHT22;8368;48.772;8.754;2023-02-25T05:08:34;2.00;99.90
16511;DHT22;8368;48.772;8.754;2023-02-25T05:11:00;2.00;99.90
16511;DHT22;8368;48.772;8.754;2023-02-25T05:13:26;2.00;99.90
16511;DHT22;8368;48.772;8.754;2023-02-25T05:15:54;2.00;99.90
16511;DHT22;8368;48.772;8.754;2023-02-25T05:18:26;2.00;99.90
16511;DHT22;8368;48.772;8.754;2023-02-25T05:20:52;2.00;99.90
16511;DHT22;8368;48.772;8.754;2023-02-25T05:23:18;2.00;99.90
16511;DHT22;8368;48.772;8.754;2023-02-25T05:25:43;2.00;99.90
16511;DHT22;8368;48.772;8.754;2023-02-25T05:28:10;2.00;99.90
16511;DHT22;8368;48.772;8.754;2023-02-25T05:30:36;2.00;99.90
16511;DHT22;8368;48.772;8.754;2023-02-25T05:33:03;2.00;99.90
16511;DHT22;8368;48.772;8.754;2023-02-25T05:35:29;2.00;99.90
16511;DHT22;8368;48.772;8.754;2023-02-25T05:37:57;2.00;99.90
16511;DHT22;8368;48.772;8.754;2023-02-25T05:40:22;1.90;99.90
16511;DHT22;8368;48.772;8.754;2023-02-25T05:42:48;2.00;99.90
16511;DHT22;8368;48.772;8.754;2023-02-25T05:45:14;1.90;99.90
16511;DHT22;8368;48.772;8.754;2023-02-25T05:47:40;1.90;99.90
16511;DHT22;8368;48.772;8.754;2023-02-25T05:50:06;1.90;99.90
16511;DHT22;8368;48.772;8.754;2023-02-25T05:52:32;1.90;99.90
16511;DHT22;8368;48.772;8.754;2023-02-25T05:54:57;1.90;99.90
16511;DHT22;8368;48.772;8.754;2023-02-25T05:57:23;1.90;99.90
16511;DHT22;8368;48.772;8.754;2023-02-25T05:59:49;1.90;99.90
16511;DHT22;8368;48.772;8.754;2023-02-25T06:02:14;1.90;99.90
16511;DHT22;8368;48.772;8.754;2023-02-25T06:04:40;2.00;99.90
16511;DHT22;8368;48.772;8.754;2023-02-25T06:07:05;2.00;99.90
16511;DHT22;8368;48.772;8.754;2023-02-25T06:09:31;2.00;99.90
16511;DHT22;8368;48.772;8.754;2023-02-25T06:11:59;2.00;99.90
16511;DHT22;8368;48.772;8.754;2023-02-25T06:14:25;2.00;99.90
16511;DHT22;8368;48.772;8.754;2023-02-25T06:16:50;1.90;99.90
16511;DHT22;8368;48.772;8.754;2023-02-25T06:19:21;2.00;99.90
16511;DHT22;8368;48.772;8.754;2023-02-25T06:21:46;2.00;99.90
16511;DHT22;8368;48.772;8.754;2023-02-25T06:24:12;1.90;99.90
16511;DHT22;8368;48.772;8.754;2023-02-25T06:26:37;1.90;99.90
16511;DHT22;8368;48.772;8.754;2023-02-25T06:29:06;1.90;99.90
16511;DHT22;8368;48.772;8.754;2023-02-25T06:31:32;1.90;99.90
16511;DHT22;8368;48.772;8.754;2023-02-25T06:33:58;2.00;99.90
16511;DHT22;8368;48.772;8.754;2023-02-25T06:36:24;1.90;99.90
16511;DHT22;8368;48.772;8.754;2023-02-25T06:38:49;1.90;99.90
16511;DHT22;8368;48.772;8.754;2023-02-25T06:41:18;2.00;99.90
16511;DHT22;8368;48.772;8.754;2023-02-25T06:43:44;2.00;99.90
16511;DHT22;8368;48.772;8.754;2023-02-25T06:46:12;2.00;99.90
16511;DHT22;8368;48.772;8.754;2023-02-25T06:48:38;2.00;99.90
16511;DHT22;8368;48.772;8.754;2023-02-25T06:51:05;1.90;99.90
16511;DHT22;8368;48.772;8.754;2023-02-25T06:53:39;2.00;99.90
16511;DHT22;8368;48.772;8.754;2023-02-25T06:56:05;2.00;99.90
16511;DHT22;8368;48.772;8.754;2023-02-25T06:58:33;2.00;99.90
16511;DHT22;8368;48.772;8.754;2023-02-25T07:00:59;2.00;99.90
16511;DHT22;8368;48.772;8.754;2023-02-25T07:03:25;2.10;99.90
16511;DHT22;8368;48.772;8.754;2023-02-25T07:05:50;2.00;99.90
16511;DHT22;8368;48.772;8.754;2023-02-25T07:08:16;2.10;99.90
16511;DHT22;8368;48.772;8.754;2023-02-25T07:10:41;2.10;99.90
16511;DHT22;8368;48.772;8.754;2023-02-25T07:13:10;2.10;99.90
16511;DHT22;8368;48.772;8.754;2023-02-25T07:15:36;2.20;99.90
16511;DHT22;8368;48.772;8.754;2023-02-25T07:18:02;2.20;99.90
16511;DHT22;8368;48.772;8.754;2023-02-25T07:20:29;2.20;99.90
16511;DHT22;8368;48.772;8.754;2023-02-25T07:22:54;2.30;99.90
16511;DHT22;8368;48.772;8.754;2023-02-25T07:25:20;2.40;99.90
16511;DHT22;8368;48.772;8.754;2023-02-25T07:27:46;2.50;99.90
16511;DHT22;8368;48.772;8.754;2023-02-25T07:30:12;2.50;99.90
16511;DHT22;8368;48.772;8.754;2023-02-25T07:32:39;2.50;99.90
16511;DHT22;8368;48.772;8.754;2023-02-25T07:35:05;2.50;99.90
16511;DHT22;8368;48.772;8.754;2023-02-25T07:37:31;2.50;99.90
16511;DHT22;8368;48.772;8.754;2023-02-25T07:39:57;2.40;99.90
16511;DHT22;8368;48.772;8.754;2023-02-25T07:42:26;2.50;99.90
16511;DHT22;8368;48.772;8.754;2023-02-25T07:44:52;2.50;99.90
16511;DHT22;8368;48.772;8.754;2023-02-25T07:47:18;2.40;99.90
16511;DHT22;8368;48.772;8.754;2023-02-25T07:49:44;2.40;99.90
16511;DHT22;8368;48.772;8.754;2023-02-25T07:52:09;2.40;99.90
16511;DHT22;8368;48.772;8.754;2023-02-25T07:54:35;2.50;99.90
16511;DHT22;8368;48.772;8.754;2023-02-25T07:57:00;2.50;99.90
16511;DHT22;8368;48.772;8.754;2023-02-25T07:59:26;2.60;99.90
16511;DHT22;8368;48.772;8.754;2023-02-25T08:01:53;2.60;99.90
16511;DHT22;8368;48.772;8.754;2023-02-25T08:04:18;2.60;99.90
16511;DHT22;8368;48.772;8.754;2023-02-25T08:06:44;2.70;99.90
16511;DHT22;8368;48.772;8.754;2023-02-25T08:09:11;2.70;99.90
16511;DHT22;8368;48.772;8.754;2023-02-25T08:11:37;2.60;99.90
16511;DHT22;8368;48.772;8.754;2023-02-25T08:14:03;2.70;99.90
16511;DHT22;8368;48.772;8.754;2023-02-25T08:16:31;2.70;99.90
16511;DHT22;8368;48.772;8.754;2023-02-25T08:18:57;2.80;99.90
16511;DHT22;8368;48.772;8.754;2023-02-25T08:21:24;2.90;99.90
16511;DHT22;8368;48.772;8.754;2023-02-25T08:23:50;2.90;99.90
16511;DHT22;8368;48.772;8.754;2023-02-25T08:26:17;2.90;99.90
16511;DHT22;8368;48.772;8.754;2023-02-25T08:28:44;3.00;99.90
16511;DHT22;8368;48.772;8.754;2023-02-25T08:31:11;3.00;99.90
16511;DHT22;8368;48.772;8.754;2023-02-25T08:33:39;3.10;99.90
16511;DHT22;8368;48.772;8.754;2023-02-25T08:36:18;3.20;99.90
16511;DHT22;8368;48.772;8.754;2023-02-25T08:38:45;3.10;99.90
16511;DHT22;8368;48.772;8.754;2023-02-25T08:41:11;3.00;99.90
16511;DHT22;8368;48.772;8.754;2023-02-25T08:43:37;3.00;99.90
16511;DHT22;8368;48.772;8.754;2023-02-25T08:46:03;3.00;99.90
16511;DHT22;8368;48.772;8.754;2023-02-25T08:48:30;2.90;99.90
16511;DHT22;8368;48.772;8.754;2023-02-25T08:51:00;2.70;99.90
16511;DHT22;8368;48.772;8.754;2023-02-25T08:53:26;2.60;99.90
16511;DHT22;8368;48.772;8.754;2023-02-25T08:55:51;2.60;99.90
16511;DHT22;8368;48.772;8.754;2023-02-25T08:58:18;2.70;99.90
16511;DHT22;8368;48.772;8.754;2023-02-25T09:00:43;2.80;99.90
16511;DHT22;8368;48.772;8.754;2023-02-25T09:03:09;3.00;99.90
16511;DHT22;8368;48.772;8.754;2023-02-25T09:05:34;3.10;99.90
16511;DHT22;8368;48.772;8.754;2023-02-25T09:08:02;3.20;99.90
16511;DHT22;8368;48.772;8.754;2023-02-25T09:10:29;3.30;99.90
16511;DHT22;8368;48.772;8.754;2023-02-25T09:12:54;3.40;99.90
16511;DHT22;8368;48.772;8.754;2023-02-25T09:15:20;3.50;99.90
16511;DHT22;8368;48.772;8.754;2023-02-25T09:17:46;3.50;99.90
16511;DHT22;8368;48.772;8.754;2023-02-25T09:20:11;3.50;99.90
16511;DHT22;8368;48.772;8.754;2023-02-25T09:22:38;3.60;99.90
16511;DHT22;8368;48.772;8.754;2023-02-25T09:25:04;3.70;99.90
16511;DHT22;8368;48.772;8.754;2023-02-25T09:27:30;3.80;99.90
16511;DHT22;8368;48.772;8.754;2023-02-25T09:29:56;3.90;99.90
16511;DHT22;8368;48.772;8.754;2023-02-25T09:32:22;4.00;99.90
16511;DHT22;8368;48.772;8.754;2023-02-25T09:34:47;4.00;99.90
16511;DHT22;8368;48.772;8.754;2023-02-25T09:37:14;4.10;99.90
16511;DHT22;8368;48.772;8.754;2023-02-25T09:39:39;4.10;99.90
16511;DHT22;8368;48.772;8.754;2023-02-25T09:42:16;4.00;99.90
16511;DHT22;8368;48.772;8.754;2023-02-25T09:44:48;4.10;99.90
16511;DHT22;8368;48.772;8.754;2023-02-25T09:52:52;4.10;99.90
16511;DHT22;8368;48.772;8.754;2023-02-25T09:55:30;4.00;99.90
16511;DHT22;8368;48.772;8.754;2023-02-25T09:58:20;4.10;99.90
16511;DHT22;8368;48.772;8.754;2023-02-25T10:01:13;3.90;99.90
16511;DHT22;8368;48.772;8.754;2023-02-25T10:04:06;3.90;99.90
16511;DHT22;8368;48.772;8.754;2023-02-25T10:06:37;3.90;99.90
16511;DHT22;8368;48.772;8.754;2023-02-25T10:09:25;3.90;99.90
16511;DHT22;8368;48.772;8.754;2023-02-25T10:12:21;4.00;99.90
16511;DHT22;8368;48.772;8.754;2023-02-25T10:15:11;4.00;99.90
16511;DHT22;8368;48.772;8.754;2023-02-25T10:20:32;4.10;99.90
16511;DHT22;8368;48.772;8.754;2023-02-25T10:25:43;4.30;99.90
16511;DHT22;8368;48.772;8.754;2023-02-25T10:28:13;4.40;99.90
16511;DHT22;8368;48.772;8.754;2023-02-25T10:31:06;4.30;99.90
16511;DHT22;8368;48.772;8.754;2023-02-25T10:33:38;4.30;99.90
16511;DHT22;8368;48.772;8.754;2023-02-25T10:36:29;4.50;99.90
16511;DHT22;8368;48.772;8.754;2023-02-25T10:38:54;4.50;99.90
16511;DHT22;8368;48.772;8.754;2023-02-25T10:41:22;4.60;99.90
16511;DHT22;8368;48.772;8.754;2023-02-25T10:43:50;4.60;99.90
16511;DHT22;8368;48.772;8.754;2023-02-25T10:46:39;4.60;99.90
16511;DHT22;8368;48.772;8.754;2023-02-25T10:49:17;4.50;99.90
16511;DHT22;8368;48.772;8.754;2023-02-25T10:54:46;4.70;99.90
16511;DHT22;8368;48.772;8.754;2023-02-25T10:57:17;4.90;99.90
16511;DHT22;8368;48.772;8.754;2023-02-25T10:59:44;4.90;99.90
16511;DHT22;8368;48.772;8.754;2023-02-25T11:02:30;4.80;99.90
16511;DHT22;8368;48.772;8.754;2023-02-25T11:04:56;4.70;99.90
16511;DHT22;8368;48.772;8.754;2023-02-25T11:07:34;4.60;99.90
16511;DHT22;8368;48.772;8.754;2023-02-25T11:10:17;4.60;99.90
16511;DHT22;8368;48.772;8.754;2023-02-25T11:12:49;4.50;99.90
16511;DHT22;8368;48.772;8.754;2023-02-25T11:15:38;4.50;99.90
16511;DHT22;8368;48.772;8.754;2023-02-25T11:20:32;4.30;99.90
16511;DHT22;8368;48.772;8.754;2023-02-25T11:22:58;4.40;99.90
16511;DHT22;8368;48.772;8.754;2023-02-25T11:25:40;4.40;99.90
16511;DHT22;8368;48.772;8.754;2023-02-25T11:28:19;4.50;99.90
16511;DHT22;8368;48.772;8.754;2023-02-25T11:30:47;4.50;99.90
16511;DHT22;8368;48.772;8.754;2023-02-25T11:33:25;4.40;99.90
16511;DHT22;8368;48.772;8.754;2023-02-25T11:35:57;4.30;99.90
16511;DHT22;8368;48.772;8.754;2023-02-25T11:40:54;4.10;99.90
16511;DHT22;8368;48.772;8.754;2023-02-25T11:43:22;4.10;99.90
16511;DHT22;8368;48.772;8.754;2023-02-25T11:46:00;3.90;99.90
16511;DHT22;8368;48.772;8.754;2023-02-25T11:48:45;3.90;99.90
16511;DHT22;8368;48.772;8.754;2023-02-25T11:53:53;3.70;99.90
16511;DHT22;8368;48.772;8.754;2023-02-25T11:56:30;3.70;99.90
16511;DHT22;8368;48.772;8.754;2023-02-25T12:04:47;3.50;99.90
16511;DHT22;8368;48.772;8.754;2023-02-25T12:13:37;3.60;99.90
16511;DHT22;8368;48.772;8.754;2023-02-25T12:25:19;4.00;99.90
16511;DHT22;8368;48.772;8.754;2023-02-25T12:39:33;4.10;99.90
16511;DHT22;8368;48.772;8.754;2023-02-25T12:44:56;4.00;99.90
16511;DHT22;8368;48.772;8.754;2023-02-25T12:47:50;4.00;99.90
16511;DHT22;8368;48.772;8.754;2023-02-25T12:58:26;3.50;99.90
16511;DHT22;8368;48.772;8.754;2023-02-25T13:06:37;3.20;99.90
16511;DHT22;8368;48.772;8.754;2023-02-25T13:12:11;3.20;99.90
16511;DHT22;8368;48.772;8.754;2023-02-25T13:14:56;3.10;99.90
16511;DHT22;8368;48.772;8.754;2023-02-25T13:17:55;3.10;99.90
16511;DHT22;8368;48.772;8.754;2023-02-25T13:20:42;3.10;99.90
16511;DHT22;8368;48.772;8.754;2023-02-25T13:26:17;3.00;99.90
16511;DHT22;8368;48.772;8.754;2023-02-25T13:35:29;3.50;99.90
16511;DHT22;8368;48.772;8.754;2023-02-25T13:44:16;4.40;99.90
16511;DHT22;8368;48.772;8.754;2023-02-25T13:47:17;4.40;99.90
16511;DHT22;8368;48.772;8.754;2023-02-25T13:55:36;4.60;99.90
16511;DHT22;8368;48.772;8.754;2023-02-25T14:22:55;4.10;99.90
16511;DHT22;8368;48.772;8.754;2023-02-25T14:28:43;4.40;99.90
16511;DHT22;8368;48.772;8.754;2023-02-25T14:34:12;4.40;99.90
16511;DHT22;8368;48.772;8.754;2023-02-25T14:45:04;4.30;99.90
16511;DHT22;8368;48.772;8.754;2023-02-25T14:47:57;4.20;99.90
16511;DHT22;8368;48.772;8.754;2023-02-25T14:50:42;4.20;99.90
16511;DHT22;8368;48.772;8.754;2023-02-25T14:59:07;4.20;99.90
16511;DHT22;8368;48.772;8.754;2023-02-25T15:04:58;4.40;99.90
16511;DHT22;8368;48.772;8.754;2023-02-25T15:13:24;4.70;99.90
16511;DHT22;8368;48.772;8.754;2023-02-25T15:20:52;4.30;99.90
16511;DHT22;8368;48.772;8.754;2023-02-25T15:23:19;4.30;99.90
16511;DHT22;8368;48.772;8.754;2023-02-25T15:28:32;4.10;99.90
16511;DHT22;8368;48.772;8.754;2023-02-25T15:33:42;4.10;99.90
16511;DHT22;8368;48.772;8.754;2023-02-25T15:38:47;4.00;99.90
16511;DHT22;8368;48.772;8.754;2023-02-25T15:51:51;4.00;99.90
16511;DHT22;8368;48.772;8.754;2023-02-25T15:57:03;4.00;99.90
16511;DHT22;8368;48.772;8.754;2023-02-25T16:07:43;3.90;99.90
16511;DHT22;8368;48.772;8.754;2023-02-25T16:10:34;3.90;99.90
16511;DHT22;8368;48.772;8.754;2023-02-25T16:13:02;3.90;99.90
16511;DHT22;8368;48.772;8.754;2023-02-25T16:15:42;3.80;99.90
16511;DHT22;8368;48.772;8.754;2023-02-25T16:20:58;3.80;99.90
16511;DHT22;8368;48.772;8.754;2023-02-25T16:23:24;3.70;99.90
16511;DHT22;8368;48.772;8.754;2023-02-25T16:26:37;3.60;99.90
16511;DHT22;8368;48.772;8.754;2023-02-25T16:29:14;3.50;99.90
16511;DHT22;8368;48.772;8.754;2023-02-25T16:31:57;3.40;99.90
16511;DHT22;8368;48.772;8.754;2023-02-25T16:39:39;3.30;99.90
16511;DHT22;8368;48.772;8.754;2023-02-25T16:42:10;3.30;99.90
16511;DHT22;8368;48.772;8.754;2023-02-25T16:44:37;3.30;99.90
16511;DHT22;8368;48.772;8.754;2023-02-25T16:47:17;3.30;99.90
16511;DHT22;8368;48.772;8.754;2023-02-25T16:49:45;3.30;99.90
16511;DHT22;8368;48.772;8.754;2023-02-25T16:52:17;3.30;99.90
16511;DHT22;8368;48.772;8.754;2023-02-25T16:54:44;3.30;99.90
16511;DHT22;8368;48.772;8.754;2023-02-25T16:57:19;3.30;99.90
16511;DHT22;8368;48.772;8.754;2023-02-25T16:59:45;3.30;99.90
16511;DHT22;8368;48.772;8.754;2023-02-25T17:04:46;3.20;99.90
16511;DHT22;8368;48.772;8.754;2023-02-25T17:07:17;3.20;99.90
16511;DHT22;8368;48.772;8.754;2023-02-25T17:09:48;3.20;99.90
16511;DHT22;8368;48.772;8.754;2023-02-25T17:12:22;3.20;99.90
16511;DHT22;8368;48.772;8.754;2023-02-25T17:14:50;3.20;99.90
16511;DHT22;8368;48.772;8.754;2023-02-25T17:17:49;3.20;99.90
16511;DHT22;8368;48.772;8.754;2023-02-25T17:20:21;3.20;99.90
16511;DHT22;8368;48.772;8.754;2023-02-25T17:22:48;3.20;99.90
16511;DHT22;8368;48.772;8.754;2023-02-25T17:25:15;3.10;99.90
16511;DHT22;8368;48.772;8.754;2023-02-25T17:27:43;3.00;99.90
16511;DHT22;8368;48.772;8.754;2023-02-25T17:30:36;2.90;99.90
16511;DHT22;8368;48.772;8.754;2023-02-25T17:33:02;2.80;99.90
16511;DHT22;8368;48.772;8.754;2023-02-25T17:35:29;2.60;99.90
16511;DHT22;8368;48.772;8.754;2023-02-25T17:37:55;2.60;99.90
16511;DHT22;8368;48.772;8.754;2023-02-25T17:40:25;2.50;99.90
16511;DHT22;8368;48.772;8.754;2023-02-25T17:43:21;2.40;99.90
16511;DHT22;8368;48.772;8.754;2023-02-25T17:45:50;2.20;99.90
16511;DHT22;8368;48.772;8.754;2023-02-25T17:48:20;2.00;99.90
16511;DHT22;8368;48.772;8.754;2023-02-25T17:51:02;1.80;99.90
16511;DHT22;8368;48.772;8.754;2023-02-25T17:53:49;1.70;99.90
16511;DHT22;8368;48.772;8.754;2023-02-25T17:56:22;1.70;99.90
16511;DHT22;8368;48.772;8.754;2023-02-25T17:58:56;1.60;99.90
16511;DHT22;8368;48.772;8.754;2023-02-25T18:01:28;1.60;99.90
16511;DHT22;8368;48.772;8.754;2023-02-25T18:03:56;1.50;99.90
16511;DHT22;8368;48.772;8.754;2023-02-25T18:08:58;1.40;99.90
16511;DHT22;8368;48.772;8.754;2023-02-25T18:11:37;1.40;99.90
16511;DHT22;8368;48.772;8.754;2023-02-25T18:16:54;1.50;99.90
16511;DHT22;8368;48.772;8.754;2023-02-25T18:21:54;1.40;99.90
16511;DHT22;8368;48.772;8.754;2023-02-25T18:24:22;1.40;99.90
16511;DHT22;8368;48.772;8.754;2023-02-25T18:27:25;1.40;99.90
16511;DHT22;8368;48.772;8.754;2023-02-25T18:29:56;1.30;99.90
16511;DHT22;8368;48.772;8.754;2023-02-25T18:32:22;1.30;99.90
16511;DHT22;8368;48.772;8.754;2023-02-25T18:34:48;1.30;99.90
16511;DHT22;8368;48.772;8.754;2023-02-25T18:37:15;1.30;99.90
16511;DHT22;8368;48.772;8.754;2023-02-25T18:39:42;1.30;99.90
16511;DHT22;8368;48.772;8.754;2023-02-25T18:42:12;1.30;99.90
16511;DHT22;8368;48.772;8.754;2023-02-25T18:44:39;1.30;99.90
16511;DHT22;8368;48.772;8.754;2023-02-25T18:47:04;1.30;99.90
16511;DHT22;8368;48.772;8.754;2023-02-25T18:49:30;1.30;99.90
16511;DHT22;8368;48.772;8.754;2023-02-25T18:51:55;1.30;99.90
16511;DHT22;8368;48.772;8.754;2023-02-25T18:54:21;1.20;99.90
16511;DHT22;8368;48.772;8.754;2023-02-25T18:56:46;1.10;99.90
16511;DHT22;8368;48.772;8.754;2023-02-25T18:59:12;1.10;99.90
16511;DHT22;8368;48.772;8.754;2023-02-25T19:01:37;1.10;99.90
16511;DHT22;8368;48.772;8.754;2023-02-25T19:04:03;1.10;99.90
16511;DHT22;8368;48.772;8.754;2023-02-25T19:06:29;1.10;99.90
16511;DHT22;8368;48.772;8.754;2023-02-25T19:08:58;1.10;99.90
16511;DHT22;8368;48.772;8.754;2023-02-25T19:11:26;1.00;99.90
16511;DHT22;8368;48.772;8.754;2023-02-25T19:13:54;1.00;99.90
16511;DHT22;8368;48.772;8.754;2023-02-25T19:16:19;1.00;99.90
16511;DHT22;8368;48.772;8.754;2023-02-25T19:18:47;1.00;99.90
16511;DHT22;8368;48.772;8.754;2023-02-25T19:21:17;1.00;99.90
16511;DHT22;8368;48.772;8.754;2023-02-25T19:23:44;1.00;99.90
16511;DHT22;8368;48.772;8.754;2023-02-25T19:26:10;0.90;99.90
16511;DHT22;8368;48.772;8.754;2023-02-25T19:28:36;0.90;99.90
16511;DHT22;8368;48.772;8.754;2023-02-25T19:31:04;0.90;99.90
16511;DHT22;8368;48.772;8.754;2023-02-25T19:33:30;0.90;99.90
16511;DHT22;8368;48.772;8.754;2023-02-25T19:35:55;0.90;99.90
16511;DHT22;8368;48.772;8.754;2023-02-25T19:38:21;0.80;99.90
16511;DHT22;8368;48.772;8.754;2023-02-25T19:40:47;0.80;99.90
16511;DHT22;8368;48.772;8.754;2023-02-25T19:43:15;0.90;99.90
16511;DHT22;8368;48.772;8.754;2023-02-25T19:45:41;0.80;99.90
16511;DHT22;8368;48.772;8.754;2023-02-25T19:48:07;0.80;99.90
16511;DHT22;8368;48.772;8.754;2023-02-25T19:50:34;0.80;99.90
16511;DHT22;8368;48.772;8.754;2023-02-25T19:53:01;0.70;99.90
16511;DHT22;8368;48.772;8.754;2023-02-25T19:55:27;0.80;99.90
16511;DHT22;8368;48.772;8.754;2023-02-25T19:57:53;0.70;99.90
16511;DHT22;8368;48.772;8.754;2023-02-25T20:00:21;0.60;99.90
16511;DHT22;8368;48.772;8.754;2023-02-25T20:02:47;0.60;99.90
16511;DHT22;8368;48.772;8.754;2023-02-25T20:05:13;0.60;99.90
16511;DHT22;8368;48.772;8.754;2023-02-25T20:07:40;0.60;99.90
16511;DHT22;8368;48.772;8.754;2023-02-25T20:10:07;0.60;99.90
16511;DHT22;8368;48.772;8.754;2023-02-25T20:12:36;0.60;99.90